Decoded Metar for LFOT (TOURS in FRANCE) (IATA:TUF) | Meteo·Mobile Aviation Weather
aviador You're here:

LFOT Decoded Metar

TOURS in FRANCE
Report Time2019-09-23 09:00:00
UTC Time2019-09-23 09:27:46
Flight Rules vfr VFR
Wind170° at 07 kt
W.Decomp.*RWY 20: 6.1 kt HW 3.5 kt LCW
Visibility9999 m
Phenomena:N/A
Clouds:Few 017 Hf
Expected CloudBase > 1,600 ft AGL from Temp-Dew spread
CeilingNone
Temp17°C (ISA +3)
Dew Point13°C (77% RH)
AAT15.4°C
QNH1017 hPa
Density Alt738 ft
Elevation354 ft
Report Wrong Elevation
Raw Report
LFOT 230900Z AUTO 17007KT 130V200 9999 FEW017 17/13 Q1017
NOSIG=

Extra information for LFOT:More info

Metar Taf Metar & Taf Last 4 Metars F.Rules Stats Wind Profile Meteogram Temp Stats Airport Information Weather charts Add Link Nearby VenuesMetar ALERT Operation Metar Decoded Social comments